createdAt,value
2022-12-31T00:00:52.174Z,44.20
2022-12-31T00:03:27.876Z,38.80
2022-12-31T00:05:56.003Z,55.20
2022-12-31T00:08:24.096Z,50.00
2022-12-31T00:10:52.263Z,51.60
2022-12-31T00:13:20.353Z,42.20
2022-12-31T00:15:48.394Z,54.60
2022-12-31T00:18:16.405Z,35.50
2022-12-31T00:20:44.449Z,46.60
2022-12-31T00:23:12.436Z,46.20
2022-12-31T00:25:40.566Z,45.10
2022-12-31T00:28:08.548Z,43.00
2022-12-31T00:30:36.644Z,46.70
2022-12-31T00:33:04.676Z,47.40
2022-12-31T00:35:34.893Z,57.30
2022-12-31T00:38:02.990Z,71.70
2022-12-31T00:40:31.252Z,51.90
2022-12-31T00:42:59.280Z,52.30
2022-12-31T00:45:27.346Z,47.90
2022-12-31T00:47:55.385Z,43.80
2022-12-31T00:50:23.460Z,45.60
2022-12-31T00:52:51.500Z,48.90
2022-12-31T00:55:19.907Z,49.60
2022-12-31T00:57:47.966Z,58.30
2022-12-31T01:00:16.329Z,47.30
2022-12-31T01:02:44.536Z,52.30
2022-12-31T01:05:13.028Z,44.50
2022-12-31T01:07:41.122Z,50.00
2022-12-31T01:10:09.452Z,52.90
2022-12-31T01:12:37.454Z,48.90
2022-12-31T01:15:05.777Z,51.20
2022-12-31T01:17:34.563Z,50.00
2022-12-31T01:20:02.573Z,46.90
2022-12-31T01:22:30.584Z,41.80
2022-12-31T01:24:58.531Z,41.90
2022-12-31T01:27:26.519Z,45.50
2022-12-31T01:29:54.682Z,46.30
2022-12-31T01:32:22.677Z,48.60
2022-12-31T01:34:50.815Z,53.00
2022-12-31T01:37:18.851Z,51.20
2022-12-31T01:39:47.024Z,46.70
2022-12-31T01:42:15.072Z,52.00
2022-12-31T01:44:47.742Z,52.80
2022-12-31T01:47:17.777Z,51.70
2022-12-31T01:49:51.624Z,51.00
2022-12-31T01:52:19.648Z,52.50
2022-12-31T01:54:49.905Z,53.20
2022-12-31T01:57:18.326Z,48.50
2022-12-31T01:59:46.383Z,50.80
2022-12-31T02:02:15.450Z,52.70
2022-12-31T02:04:43.662Z,44.10
2022-12-31T02:07:12.782Z,56.50
2022-12-31T02:09:42.192Z,55.50
2022-12-31T02:12:10.641Z,62.10
2022-12-31T02:14:43.943Z,59.30
2022-12-31T02:17:30.832Z,67.20
2022-12-31T02:19:58.911Z,62.40
2022-12-31T02:22:29.741Z,75.60
2022-12-31T02:25:09.896Z,64.00
2022-12-31T02:27:45.130Z,56.30
2022-12-31T02:30:15.351Z,51.60
2022-12-31T02:33:02.673Z,47.70
2022-12-31T02:35:38.904Z,54.40
2022-12-31T02:38:13.127Z,54.90
2022-12-31T02:40:41.356Z,46.40
2022-12-31T02:43:09.437Z,50.50
2022-12-31T02:45:38.739Z,48.30
2022-12-31T02:48:21.538Z,50.40
2022-12-31T02:51:00.467Z,50.40
2022-12-31T02:53:31.947Z,44.20
2022-12-31T02:55:59.980Z,46.00
2022-12-31T02:58:53.185Z,38.20
2022-12-31T03:01:44.689Z,38.90
2022-12-31T03:04:32.544Z,43.40
2022-12-31T03:07:02.295Z,47.80
2022-12-31T03:09:30.489Z,50.50
2022-12-31T03:12:17.531Z,46.80
2022-12-31T03:14:45.789Z,44.70
2022-12-31T03:17:13.894Z,53.40
2022-12-31T03:20:00.584Z,53.90
2022-12-31T03:22:29.188Z,46.70
2022-12-31T03:25:33.591Z,48.40
2022-12-31T03:28:21.935Z,46.80
2022-12-31T03:30:52.145Z,52.60
2022-12-31T03:33:20.591Z,48.10
2022-12-31T03:35:49.303Z,45.10
2022-12-31T03:38:18.407Z,50.40
2022-12-31T03:40:47.970Z,51.40
2022-12-31T03:43:16.416Z,49.70
2022-12-31T03:45:44.607Z,49.10
2022-12-31T03:48:13.377Z,47.50
2022-12-31T03:50:41.472Z,47.00
2022-12-31T03:53:09.569Z,46.90
2022-12-31T03:55:37.977Z,48.90
2022-12-31T03:58:06.084Z,47.30
2022-12-31T04:00:34.170Z,43.20
2022-12-31T04:03:02.278Z,48.50
2022-12-31T04:05:30.492Z,54.10
2022-12-31T04:07:58.543Z,51.90
2022-12-31T04:10:26.653Z,53.80
2022-12-31T04:12:54.673Z,50.50
2022-12-31T04:15:22.788Z,44.40
2022-12-31T04:17:50.940Z,51.50
2022-12-31T04:20:20.891Z,54.60
2022-12-31T04:22:50.366Z,48.90
2022-12-31T04:25:18.605Z,48.60
2022-12-31T04:27:47.520Z,58.30
2022-12-31T04:30:15.671Z,45.60
2022-12-31T04:32:43.708Z,45.40
2022-12-31T04:35:13.390Z,61.80
2022-12-31T04:37:41.525Z,52.90
2022-12-31T04:40:09.800Z,45.40
2022-12-31T04:42:37.791Z,52.00
2022-12-31T04:45:06.257Z,50.80
2022-12-31T04:47:34.283Z,58.70
2022-12-31T04:50:02.356Z,49.50
2022-12-31T04:52:30.404Z,54.90
2022-12-31T04:54:58.472Z,76.00
2022-12-31T04:57:26.524Z,71.70
2022-12-31T04:59:54.572Z,69.90
2022-12-31T05:02:22.751Z,78.70
2022-12-31T05:04:51.020Z,58.90
2022-12-31T05:07:19.119Z,61.40
2022-12-31T05:09:47.206Z,57.40
2022-12-31T05:12:15.276Z,47.30
2022-12-31T05:14:43.434Z,51.70
2022-12-31T05:17:11.596Z,56.80
2022-12-31T05:19:39.888Z,58.40
2022-12-31T05:22:26.924Z,60.90
2022-12-31T05:24:55.387Z,62.00
2022-12-31T05:27:23.521Z,60.50
2022-12-31T05:29:51.761Z,57.00
2022-12-31T05:32:20.042Z,69.50
2022-12-31T05:34:48.845Z,81.30
2022-12-31T05:37:17.028Z,75.50
2022-12-31T05:39:45.086Z,68.30
2022-12-31T05:42:13.172Z,67.50
2022-12-31T05:44:41.259Z,65.80
2022-12-31T05:47:09.335Z,77.00
2022-12-31T05:49:37.363Z,63.70
2022-12-31T05:52:05.707Z,64.00
2022-12-31T05:54:33.872Z,61.00
2022-12-31T05:57:02.635Z,70.00
2022-12-31T05:59:31.026Z,69.00
2022-12-31T06:01:59.087Z,76.30
2022-12-31T06:04:27.232Z,72.90
2022-12-31T06:06:55.407Z,73.20
2022-12-31T06:09:23.655Z,70.20
2022-12-31T06:11:51.810Z,66.10
2022-12-31T06:14:19.952Z,69.60
2022-12-31T06:16:47.987Z,65.40
2022-12-31T06:19:16.060Z,69.20
2022-12-31T06:21:44.133Z,64.70
2022-12-31T06:24:12.475Z,64.10
2022-12-31T06:26:40.622Z,60.30
2022-12-31T06:29:09.146Z,66.80
2022-12-31T06:31:37.372Z,66.30
2022-12-31T06:34:05.533Z,74.50
2022-12-31T06:36:33.991Z,68.40
2022-12-31T06:39:02.057Z,78.80
2022-12-31T06:41:31.492Z,71.90
2022-12-31T06:43:59.758Z,76.90
2022-12-31T06:46:27.845Z,64.20
2022-12-31T06:48:55.987Z,73.90
2022-12-31T06:51:24.476Z,70.90
2022-12-31T06:53:52.765Z,83.90
2022-12-31T06:56:34.035Z,70.80
2022-12-31T06:59:03.499Z,71.30
2022-12-31T07:01:34.893Z,65.10
2022-12-31T07:04:17.748Z,65.10
2022-12-31T07:06:51.945Z,72.10
2022-12-31T07:09:26.246Z,62.80
2022-12-31T07:14:42.752Z,64.70
2022-12-31T07:17:16.897Z,70.10
2022-12-31T07:19:57.496Z,58.30
2022-12-31T07:22:26.163Z,61.80
2022-12-31T07:24:54.407Z,62.10
2022-12-31T07:27:22.585Z,63.10
2022-12-31T07:29:56.625Z,64.20
2022-12-31T07:32:43.326Z,54.20
2022-12-31T07:35:17.403Z,46.10
2022-12-31T07:40:13.960Z,58.90
2022-12-31T07:42:41.987Z,62.60
2022-12-31T07:45:30.300Z,49.60
2022-12-31T07:48:02.449Z,55.40
2022-12-31T07:50:31.266Z,55.90
2022-12-31T07:52:59.625Z,53.70
2022-12-31T07:55:27.554Z,55.60
2022-12-31T07:58:02.638Z,49.40
2022-12-31T08:00:31.352Z,53.60
2022-12-31T08:03:02.110Z,65.70
2022-12-31T08:05:30.936Z,52.00
2022-12-31T08:08:05.619Z,53.90
2022-12-31T08:10:45.552Z,46.00
2022-12-31T08:13:13.806Z,43.20
2022-12-31T08:15:42.079Z,50.80
2022-12-31T08:18:10.647Z,43.80
2022-12-31T08:21:08.252Z,50.40
2022-12-31T08:23:40.082Z,50.40
2022-12-31T08:26:10.984Z,50.50
2022-12-31T08:28:55.399Z,50.50
2022-12-31T08:34:09.408Z,48.50
2022-12-31T08:36:40.106Z,47.80
2022-12-31T08:39:17.751Z,43.00
2022-12-31T08:41:47.956Z,51.90
2022-12-31T08:44:34.905Z,50.30
2022-12-31T08:47:03.059Z,60.30
2022-12-31T08:49:32.992Z,57.80
2022-12-31T08:52:02.031Z,51.10
2022-12-31T08:54:30.556Z,45.20
2022-12-31T08:57:17.176Z,47.10
2022-12-31T08:59:54.480Z,47.70
2022-12-31T09:02:22.509Z,51.00
2022-12-31T09:05:00.098Z,43.70
2022-12-31T09:07:48.419Z,41.20
2022-12-31T09:10:27.269Z,43.40
2022-12-31T09:13:03.635Z,39.40
2022-12-31T09:15:42.824Z,36.10
2022-12-31T09:18:12.506Z,36.20
2022-12-31T09:20:43.327Z,36.70
2022-12-31T09:23:13.488Z,39.00
2022-12-31T09:25:56.077Z,46.00
2022-12-31T09:28:33.181Z,43.80
2022-12-31T09:31:08.977Z,41.30
2022-12-31T09:34:12.352Z,40.70
2022-12-31T09:36:43.903Z,38.00
2022-12-31T09:39:21.385Z,45.60
2022-12-31T09:42:09.015Z,41.90
2022-12-31T09:44:39.926Z,42.10
2022-12-31T09:47:20.161Z,36.20
2022-12-31T09:50:07.137Z,38.90
2022-12-31T09:52:41.027Z,37.30
2022-12-31T09:57:56.898Z,35.60
2022-12-31T10:00:48.379Z,49.50
2022-12-31T10:03:25.514Z,46.00
2022-12-31T10:05:56.441Z,34.80
2022-12-31T10:08:27.769Z,39.10
2022-12-31T10:11:02.467Z,34.50
2022-12-31T10:13:30.516Z,37.40
2022-12-31T10:16:24.943Z,45.20
2022-12-31T10:19:19.112Z,43.10
2022-12-31T10:22:05.776Z,43.20
2022-12-31T10:24:39.859Z,39.90
2022-12-31T10:27:21.518Z,40.80
2022-12-31T10:30:02.328Z,41.40
2022-12-31T10:32:49.250Z,36.40
2022-12-31T10:35:17.445Z,33.80
2022-12-31T10:37:51.756Z,32.10
2022-12-31T10:40:33.921Z,49.10
2022-12-31T10:43:01.975Z,40.30
2022-12-31T10:45:30.042Z,36.20
2022-12-31T10:48:16.592Z,38.50
2022-12-31T10:50:44.749Z,38.50
2022-12-31T10:53:24.956Z,39.90
2022-12-31T10:56:05.238Z,39.50
2022-12-31T10:58:35.993Z,35.90
2022-12-31T11:01:22.984Z,36.10
2022-12-31T11:04:20.339Z,33.60
2022-12-31T11:06:54.043Z,31.60
2022-12-31T11:09:28.624Z,34.10
2022-12-31T11:12:08.398Z,29.50
2022-12-31T11:14:54.608Z,41.60
2022-12-31T11:17:22.696Z,33.60
2022-12-31T11:19:59.774Z,36.60
2022-12-31T11:22:27.800Z,32.50
2022-12-31T11:25:02.225Z,31.40
2022-12-31T11:27:49.644Z,28.50
2022-12-31T11:30:40.620Z,33.00
2022-12-31T11:33:21.090Z,27.90
2022-12-31T11:36:07.774Z,30.80
2022-12-31T11:38:43.435Z,33.90
2022-12-31T11:41:20.438Z,32.70
2022-12-31T11:44:00.420Z,34.80
2022-12-31T11:46:46.923Z,32.20
2022-12-31T11:49:28.962Z,39.50
2022-12-31T11:52:21.056Z,33.30
2022-12-31T11:54:55.648Z,32.60
2022-12-31T11:57:31.993Z,35.10
2022-12-31T12:00:01.992Z,37.80
2022-12-31T12:02:49.419Z,33.00
2022-12-31T12:05:20.385Z,42.80
2022-12-31T12:07:49.050Z,35.10
2022-12-31T12:10:21.355Z,33.50
2022-12-31T12:12:49.970Z,35.10
2022-12-31T12:15:21.845Z,34.60
2022-12-31T12:17:50.778Z,40.40
2022-12-31T12:20:21.227Z,43.10
2022-12-31T12:22:53.837Z,34.10
2022-12-31T12:25:23.868Z,29.90
2022-12-31T12:27:52.239Z,35.30
2022-12-31T12:30:25.065Z,35.50
2022-12-31T12:32:57.439Z,32.10
2022-12-31T12:35:35.604Z,37.10
2022-12-31T12:38:07.075Z,33.30
2022-12-31T12:40:35.387Z,33.50
2022-12-31T12:43:03.551Z,50.00
2022-12-31T12:45:46.400Z,76.00
2022-12-31T12:48:22.475Z,46.20
2022-12-31T12:50:51.399Z,35.20
2022-12-31T12:53:32.382Z,38.90
2022-12-31T12:56:00.278Z,41.90
2022-12-31T12:58:51.536Z,41.80
2022-12-31T13:01:55.785Z,42.60
2022-12-31T13:04:43.099Z,62.60
2022-12-31T13:07:14.163Z,59.00
2022-12-31T13:10:01.459Z,31.50
2022-12-31T13:13:13.707Z,29.60
2022-12-31T13:15:47.130Z,34.20
2022-12-31T13:18:27.269Z,35.50
2022-12-31T13:21:04.591Z,36.30
2022-12-31T13:23:39.684Z,40.10
2022-12-31T13:26:08.190Z,43.60
2022-12-31T13:28:39.308Z,41.20
2022-12-31T13:31:11.212Z,38.20
2022-12-31T13:33:49.775Z,35.60
2022-12-31T13:36:19.378Z,38.80
2022-12-31T13:38:50.293Z,37.70
2022-12-31T13:41:34.531Z,48.40
2022-12-31T13:46:42.910Z,71.50
2022-12-31T13:49:21.977Z,57.30
2022-12-31T13:51:51.527Z,49.90
2022-12-31T13:54:29.128Z,43.40
2022-12-31T13:56:59.638Z,39.10
2022-12-31T13:59:48.811Z,43.50
2022-12-31T14:02:36.715Z,35.10
2022-12-31T14:05:23.254Z,44.30
2022-12-31T14:07:53.871Z,51.40
2022-12-31T14:10:30.380Z,43.60
2022-12-31T14:13:08.030Z,44.60
2022-12-31T14:15:44.377Z,59.40
2022-12-31T14:18:33.043Z,47.10
2022-12-31T14:21:11.916Z,53.80
2022-12-31T14:24:06.676Z,55.70
2022-12-31T14:26:36.663Z,64.40
2022-12-31T14:29:11.210Z,143.50
2022-12-31T14:31:42.357Z,255.40
2022-12-31T14:34:13.452Z,99.60
2022-12-31T14:36:50.694Z,99.10
2022-12-31T14:39:18.764Z,79.40
2022-12-31T14:42:01.962Z,75.10
2022-12-31T14:44:48.189Z,88.70
2022-12-31T14:47:42.505Z,92.60
2022-12-31T14:50:21.417Z,93.80
2022-12-31T14:52:53.984Z,125.40
2022-12-31T14:55:22.698Z,114.00
2022-12-31T15:00:40.449Z,105.20
2022-12-31T15:03:14.899Z,90.30
2022-12-31T15:05:54.430Z,92.30
2022-12-31T15:08:37.836Z,76.80
2022-12-31T15:11:24.727Z,67.20
2022-12-31T15:13:52.901Z,115.00
2022-12-31T15:16:33.552Z,105.30
2022-12-31T15:19:14.327Z,92.80
2022-12-31T15:22:01.368Z,73.00
2022-12-31T15:24:31.091Z,64.50
2022-12-31T15:27:04.249Z,71.30
2022-12-31T15:29:34.499Z,70.50
2022-12-31T15:32:04.316Z,119.40
2022-12-31T15:34:35.088Z,125.60
2022-12-31T15:37:05.665Z,109.60
2022-12-31T15:39:43.818Z,139.70
2022-12-31T15:42:38.219Z,147.00
2022-12-31T15:45:07.908Z,145.80
2022-12-31T15:47:43.461Z,132.70
2022-12-31T15:50:21.964Z,149.00
2022-12-31T15:52:57.181Z,75.20
2022-12-31T15:55:38.948Z,171.80
2022-12-31T15:58:17.038Z,163.70
2022-12-31T16:01:10.218Z,157.60
2022-12-31T16:03:42.976Z,146.80
2022-12-31T16:06:12.559Z,147.60
2022-12-31T16:08:41.300Z,131.10
2022-12-31T16:11:10.228Z,121.40
2022-12-31T16:13:41.199Z,147.80
2022-12-31T16:16:20.400Z,122.20
2022-12-31T16:18:50.426Z,132.60
2022-12-31T16:21:29.340Z,127.00
2022-12-31T16:23:58.430Z,111.60
2022-12-31T16:26:31.619Z,90.20
2022-12-31T16:29:00.440Z,108.50
2022-12-31T16:31:29.262Z,103.60
2022-12-31T16:34:04.888Z,115.30
2022-12-31T16:36:34.457Z,88.30
2022-12-31T16:39:22.168Z,72.30
2022-12-31T16:41:51.271Z,75.20
2022-12-31T16:44:29.231Z,71.70
2022-12-31T16:46:59.860Z,84.90
2022-12-31T16:49:29.084Z,75.90
2022-12-31T16:52:00.373Z,81.00
2022-12-31T16:54:30.806Z,79.00
2022-12-31T16:56:59.272Z,71.80
2022-12-31T16:59:33.324Z,58.60
2022-12-31T17:02:04.766Z,85.00
2022-12-31T17:04:33.155Z,76.80
2022-12-31T17:07:20.281Z,69.20
2022-12-31T17:09:48.306Z,67.30
2022-12-31T17:12:16.853Z,86.20
2022-12-31T17:14:49.431Z,84.10
2022-12-31T17:17:27.958Z,77.20
2022-12-31T17:19:57.059Z,78.60
2022-12-31T17:22:36.963Z,41.70
2022-12-31T17:25:06.762Z,63.70
2022-12-31T17:27:36.041Z,64.90
2022-12-31T17:30:35.444Z,67.10
2022-12-31T17:33:09.233Z,71.30
2022-12-31T17:35:44.405Z,64.90
2022-12-31T17:38:18.016Z,66.10
2022-12-31T17:40:51.648Z,72.20
2022-12-31T17:43:23.068Z,65.00
2022-12-31T17:45:51.734Z,76.50
2022-12-31T17:48:20.249Z,62.00
2022-12-31T17:50:49.563Z,59.30
2022-12-31T17:53:18.238Z,67.00
2022-12-31T17:55:48.332Z,65.60
2022-12-31T17:58:30.112Z,55.50
2022-12-31T18:00:58.835Z,59.00
2022-12-31T18:03:27.068Z,59.30
2022-12-31T18:05:55.232Z,57.60
2022-12-31T18:08:23.936Z,63.60
2022-12-31T18:10:52.849Z,54.60
2022-12-31T18:13:22.804Z,56.30
2022-12-31T18:15:51.072Z,53.40
2022-12-31T18:18:25.267Z,58.00
2022-12-31T18:20:58.696Z,54.20
2022-12-31T18:23:28.680Z,49.80
2022-12-31T18:25:56.648Z,56.70
2022-12-31T18:28:24.661Z,57.50
2022-12-31T18:30:52.955Z,55.30
2022-12-31T18:33:25.340Z,45.50
2022-12-31T18:36:10.433Z,59.00
2022-12-31T18:38:39.670Z,51.60
2022-12-31T18:41:15.280Z,92.50
2022-12-31T18:43:43.296Z,70.50
2022-12-31T18:46:13.380Z,56.70
2022-12-31T18:48:44.522Z,53.60
2022-12-31T18:51:17.815Z,64.10
2022-12-31T18:53:45.816Z,58.20
2022-12-31T18:56:15.801Z,86.40
2022-12-31T18:58:44.603Z,65.70
2022-12-31T19:01:27.229Z,79.60
2022-12-31T19:03:56.791Z,60.50
2022-12-31T19:06:25.397Z,77.70
2022-12-31T19:08:53.481Z,82.80
2022-12-31T19:11:22.053Z,85.90
2022-12-31T19:13:50.522Z,94.80
2022-12-31T19:16:18.748Z,65.20
2022-12-31T19:18:47.688Z,53.20
2022-12-31T19:21:22.825Z,52.00
2022-12-31T19:23:51.669Z,47.50
2022-12-31T19:26:21.231Z,66.60
2022-12-31T19:28:50.484Z,97.20
2022-12-31T19:31:18.759Z,136.40
2022-12-31T19:33:47.105Z,78.90
2022-12-31T19:36:19.310Z,57.70
2022-12-31T19:38:47.823Z,75.70
2022-12-31T19:41:17.260Z,65.80
2022-12-31T19:43:45.531Z,45.00
2022-12-31T19:46:18.019Z,49.80
2022-12-31T19:48:46.281Z,44.20
2022-12-31T19:51:19.090Z,47.30
2022-12-31T19:53:47.874Z,61.10
2022-12-31T19:56:17.431Z,60.70
2022-12-31T19:58:45.607Z,53.30
2022-12-31T20:01:20.712Z,56.80
2022-12-31T20:03:49.531Z,53.30
2022-12-31T20:06:18.018Z,47.50
2022-12-31T20:08:46.712Z,58.30
2022-12-31T20:11:18.921Z,48.90
2022-12-31T20:13:47.782Z,63.10
2022-12-31T20:16:17.384Z,54.70
2022-12-31T20:18:46.455Z,47.20
2022-12-31T20:21:19.808Z,47.70
2022-12-31T20:23:48.624Z,39.00
2022-12-31T20:26:16.893Z,37.20
2022-12-31T20:28:45.403Z,54.30
2022-12-31T20:31:15.737Z,64.80
2022-12-31T20:33:45.645Z,50.90
2022-12-31T20:36:14.553Z,45.40
2022-12-31T20:38:42.698Z,53.60
2022-12-31T20:41:15.297Z,64.10
2022-12-31T20:43:43.833Z,50.80
2022-12-31T20:46:15.802Z,54.60
2022-12-31T20:48:44.767Z,41.90
2022-12-31T20:51:13.838Z,64.30
2022-12-31T20:53:46.556Z,66.10
2022-12-31T20:56:14.561Z,74.40
2022-12-31T20:58:42.777Z,86.90
2022-12-31T21:01:10.941Z,78.50
2022-12-31T21:06:28.638Z,86.80
2022-12-31T21:08:57.417Z,95.10
2022-12-31T21:11:44.370Z,81.20
2022-12-31T21:14:12.389Z,58.80
2022-12-31T21:16:40.598Z,55.60
2022-12-31T21:19:08.983Z,61.70
2022-12-31T21:21:37.027Z,69.60
2022-12-31T21:24:05.311Z,68.90
2022-12-31T21:26:33.778Z,51.40
2022-12-31T21:29:01.801Z,62.40
2022-12-31T21:31:29.914Z,59.90
2022-12-31T21:33:58.043Z,49.40
2022-12-31T21:36:26.223Z,41.90
2022-12-31T21:38:54.358Z,45.80
2022-12-31T21:41:40.761Z,38.70
2022-12-31T21:44:08.881Z,38.60
2022-12-31T21:46:37.149Z,34.40
2022-12-31T21:49:05.528Z,41.40
2022-12-31T21:51:53.521Z,37.90
2022-12-31T21:54:41.523Z,39.00
2022-12-31T21:57:09.598Z,36.90
2022-12-31T22:00:24.065Z,33.20
2022-12-31T22:03:03.233Z,38.30
2022-12-31T22:05:31.336Z,60.40
2022-12-31T22:07:59.562Z,48.60
2022-12-31T22:10:27.604Z,43.00
2022-12-31T22:12:55.619Z,33.30
2022-12-31T22:15:23.651Z,45.40
2022-12-31T22:17:51.737Z,66.40
2022-12-31T22:20:29.412Z,33.10
2022-12-31T22:22:57.725Z,32.20
2022-12-31T22:25:26.797Z,36.50
2022-12-31T22:30:46.724Z,36.30
2022-12-31T22:33:14.880Z,34.20
2022-12-31T22:35:42.983Z,41.80
2022-12-31T22:38:12.379Z,34.80
2022-12-31T22:40:40.685Z,31.00
2022-12-31T22:43:08.713Z,40.60
2022-12-31T22:45:36.867Z,34.00
2022-12-31T22:48:05.005Z,32.80
2022-12-31T22:50:33.046Z,31.20
2022-12-31T22:53:01.083Z,35.10
2022-12-31T22:55:29.475Z,43.00
2022-12-31T22:57:57.393Z,36.30
2022-12-31T23:00:37.180Z,31.00
2022-12-31T23:03:05.338Z,31.40
2022-12-31T23:05:34.959Z,32.00
2022-12-31T23:08:09.435Z,25.80
2022-12-31T23:11:01.184Z,30.20
2022-12-31T23:13:51.395Z,32.80
2022-12-31T23:16:38.469Z,34.70
2022-12-31T23:19:25.386Z,37.90
2022-12-31T23:22:12.277Z,32.10
2022-12-31T23:24:40.348Z,53.40
2022-12-31T23:27:09.125Z,76.80
2022-12-31T23:29:46.528Z,50.30
2022-12-31T23:32:16.960Z,36.40
2022-12-31T23:34:45.882Z,49.70
2022-12-31T23:37:14.894Z,45.40
2022-12-31T23:39:42.967Z,48.10
2022-12-31T23:42:11.066Z,35.40
2022-12-31T23:44:39.226Z,40.20
2022-12-31T23:47:07.498Z,40.70
2022-12-31T23:49:35.578Z,44.90
2022-12-31T23:52:03.737Z,46.70
2022-12-31T23:54:31.746Z,37.30
2022-12-31T23:56:59.998Z,43.60
2022-12-31T23:59:28.090Z,38.00
